Terminal Aerodrome Forecast
Issued by NWS

Home | Current Version | Previous Version | Text Only | Print | Product List | Glossary On
Versions: 1 2 3 4 5 6 7 8 9 10 11 12
000
FTUS45 KVEF 210500
TAFBIH
TAF
KBIH 210530Z 2106/2206 33006KT P6SM SCT110
     FM211500 VRB05KT P6SM BKN250
     FM212000 16018G28KT P6SM BKN250
     FM220400 15013KT P6SM SCT150 BKN250=

USA.gov is the U.S. government's official web portal to all federal, state and local government web resources and services.